Latest Coastal Weather Observations for Hervey Bay

IDQ60701

Issued at 5:52 pm EST Tuesday 26 May 2020 (issued every 10 minutes, with the page automatically refreshed every 10 minutes)

About coastal observations | Map of coastal stations | Coastal observations for QLD | Marine services | Other Formats
Station Details ID: 040405 Name: HERVEY BAY AIRPORT Lat: -25.32 Lon: 152.88 Height: 12.98 m
Data from the previous 72 hours. | See also: Recent months at Hervey Bay
Date/Time
EST
Wind Sea
Height
m
Swell Vis
km
Cloud Weather Temp
°C
Press
hPa
Rain since
9am
mm
Dir  Spd
kts
Gust
kts
Height
m
Period
s
Dir
26/05:30pm N 4 5 - - - - 10 - - 15.7 1017.7 0.0
26/05:00pm N 5 7 - - - - 10 - - 18.5 1017.5 0.0
26/04:30pm N 5 6 - - - - 10 - - 20.1 1017.2 0.0
26/04:00pm N 6 8 - - - - 10 - - 20.7 1017.1 0.0
26/03:30pm NNE 7 8 - - - - 10 - - 20.9 1016.9 0.0
26/03:00pm NE 8 11 - - - - 10 - - 21.4 1017.0 0.0
26/02:30pm NNE 7 9 - - - - 10 - - 21.7 1017.0 0.0
26/02:00pm NE 6 10 - - - - 10 - - 21.7 1016.8 0.0
26/01:30pm E 7 11 - - - - 10 - - 21.6 1017.2 0.0
26/01:00pm ESE 6 9 - - - - 10 - - 21.7 1017.4 0.0
26/12:30pm WSW 5 9 - - - - 10 - - 22.2 1018.0 0.0
26/12:00pm SSW 6 11 - - - - 10 - - 21.7 1018.4 0.0
26/11:30am SW 7 11 - - - - 10 - - 21.5 1018.8 0.0
26/11:00am SW 6 11 - - - - 10 - - 20.9 1019.1 0.0
26/10:30am SSW 7 9 - - - - 10 - - 19.8 1019.4 0.0
26/10:00am S 5 8 - - - - 10 - - 19.2 1019.6 0.0
26/09:30am SW 7 10 - - - - 10 - - 17.9 1019.8 0.0
26/09:00am SSW 7 10 - - - - 10 - - 16.4 1019.7 0.0
26/08:30am SSW 7 9 - - - - 10 - - 14.8 1019.6 0.0
26/08:00am SW 5 8 - - - - 10 - - 13.4 1019.4 0.0
26/07:30am SW 5 5 - - - - 10 - - 12.0 1019.1 0.0
26/07:00am SW 4 5 - - - - 10 - - 10.7 1018.9 0.0
26/06:30am SW 5 6 - - - - 10 - - 9.8 1018.5 0.0
26/06:00am SW 5 5 - - - - 10 - - 9.2 1017.9 0.0
26/05:30am SW 3 4 - - - - 10 - - 9.3 1017.6 0.0
26/05:00am SW 4 5 - - - - 10 - - 9.8 1017.3 0.0
26/04:30am SSW 5 5 - - - - 10 - - 9.9 1017.1 0.0
26/04:00am SW 4 5 - - - - 10 - - 9.3 1017.0 0.0
26/03:30am SW 4 6 - - - - 10 - - 10.4 1016.9 0.0
26/03:00am SW 4 5 - - - - 10 - - 9.9 1016.8 0.0
26/02:30am WSW 5 6 - - - - 10 - - 10.2 1016.7 0.0
26/02:00am CALM 0 0 - - - - 10 - - 9.3 1017.0 0.0
26/01:30am CALM 0 0 - - - - 10 - - 9.8 1017.1 0.0
26/01:00am NW 3 4 - - - - 10 - - 10.1 1017.2 0.0
26/12:30am NW 4 5 - - - - 10 - - 10.7 1017.3 0.0
26/12:00am WNW 5 7 - - - - 10 - - 11.7 1017.5 0.0
 
Date/Time
EST
Wind Sea
Height
m
Swell Vis
km
Cloud Weather Temp
°C
Press
hPa
Rain since
9am
mm
Dir  Spd
kts
Gust
kts
Height
m
Period
s
Dir
25/11:30pm W 2 3 - - - - 10 - - 10.6 1017.7 0.0
25/11:00pm SW 3 4 - - - - 10 - - 10.7 1017.5 0.0
25/10:30pm CALM 0 4 - - - - 10 - - 10.8 1017.4 0.0
25/10:00pm CALM 0 0 - - - - 10 - - 11.0 1017.5 0.0
25/09:30pm CALM 0 0 - - - - 10 - - 11.4 1017.3 0.0
25/09:00pm CALM 0 0 - - - - 10 - - 11.7 1017.1 0.0
25/08:30pm CALM 0 0 - - - - 10 - - 11.8 1017.0 0.0
25/08:00pm CALM 0 1 - - - - 10 - - 12.2 1016.8 0.0
25/07:30pm NW 4 4 - - - - 10 - - 12.5 1016.9 0.0
25/07:00pm CALM 0 0 - - - - 10 - - 13.1 1016.3 0.0
25/06:30pm CALM 0 0 - - - - 10 - - 13.8 1016.0 0.0
25/06:00pm NNE 1 3 - - - - 10 - - 14.7 1015.6 0.0
25/05:30pm NNE 4 5 - - - - 10 - - 17.4 1015.2 0.0
25/05:00pm N 6 7 - - - - 10 - - 18.2 1014.8 0.0
25/04:30pm NNE 6 7 - - - - 10 - - 19.1 1014.7 0.0
25/04:00pm N 8 10 - - - - 10 - - 19.4 1014.7 0.0
25/03:30pm N 8 11 - - - - 10 - - 19.7 1014.5 0.0
25/03:00pm N 9 13 - - - - 10 - - 19.8 1014.5 0.0
25/02:30pm ENE 7 11 - - - - 10 - - 21.6 1014.6 0.0
25/02:00pm E 5 7 - - - - 10 - - 21.4 1014.3 0.0
25/01:30pm ENE 5 8 - - - - 10 - - 21.6 1014.3 0.0
25/01:00pm ESE 5 6 - - - - 10 - - 21.4 1014.3 0.0
25/12:30pm ESE 7 11 - - - - 10 - - 21.1 1014.4 0.0
25/12:00pm SSE 7 10 - - - - 10 - - 20.8 1014.7 0.0
25/11:30am S 5 9 - - - - 10 - - 20.3 1015.3 0.0
25/11:00am SSW 5 9 - - - - 10 - - 19.6 1015.5 0.0
25/10:30am SSW 6 8 - - - - 10 - - 18.7 1015.8 0.0
25/10:00am SSW 7 9 - - - - 10 - - 17.5 1016.2 0.0
25/09:30am SSW 6 7 - - - - 10 - - 16.8 1016.2 0.0
25/09:00am SW 7 12 - - - - 10 - - 15.4 1016.0 0.0
25/08:30am SW 7 10 - - - - 10 - - 13.7 1016.0 0.0
25/08:00am SW 5 7 - - - - 10 - - 12.5 1015.6 0.0
25/07:30am SW 5 8 - - - - 10 - - 10.8 1015.4 0.0
25/07:00am SW 3 5 - - - - 10 - - 8.6 1015.2 0.0
25/06:30am WSW 1 4 - - - - 10 - - 7.8 1014.8 0.0
25/06:00am WSW 4 6 - - - - 10 - - 8.1 1014.2 0.0
25/05:30am WSW 3 5 - - - - 10 - - 7.9 1014.0 0.0
25/05:00am W 5 6 - - - - 10 - - 8.6 1013.7 0.0
25/04:30am WSW 5 7 - - - - 10 - - 9.8 1013.6 0.0
25/04:00am W 6 7 - - - - 10 - - 9.7 1013.6 0.0
25/03:30am W 7 8 - - - - 10 - - 9.6 1013.7 0.0
25/03:00am WNW 6 7 - - - - 10 - - 9.2 1013.8 0.0
25/02:30am W 6 7 - - - - 10 - - 9.7 1013.7 0.0
25/02:00am W 6 8 - - - - 10 - - 10.2 1013.9 0.0
25/01:30am WNW 6 7 - - - - 10 - - 10.5 1014.3 0.0
25/01:00am WNW 5 7 - - - - 10 - - 11.0 1014.4 0.0
25/12:30am WNW 6 7 - - - - 10 - - 9.5 1014.3 0.0
25/12:00am WNW 6 8 - - - - 10 - - 8.6 1014.3 0.0
 
Date/Time
EST
Wind Sea
Height
m
Swell Vis
km
Cloud Weather Temp
°C
Press
hPa
Rain since
9am
mm
Dir  Spd
kts
Gust
kts
Height
m
Period
s
Dir
24/11:30pm NNW 4 5 - - - - 10 - - 8.3 1014.5 0.0
24/11:00pm WNW 4 5 - - - - 10 - - 7.9 1014.4 0.0
24/10:30pm WNW 3 4 - - - - 10 - - 8.2 1014.4 0.0
24/10:00pm CALM 0 0 - - - - 10 - - 8.7 1014.1 0.0
24/09:30pm CALM 0 0 - - - - 10 - - 8.8 1014.0 0.0
24/09:00pm WNW 2 4 - - - - 10 - - 8.8 1014.0 0.0
24/08:30pm CALM 0 0 - - - - 10 - - 9.3 1013.8 0.0
24/08:00pm NW 2 3 - - - - 10 - - 10.6 1013.5 0.0
24/07:30pm SSW 3 4 - - - - 10 - - 11.0 1013.1 0.0
24/07:00pm SW 4 5 - - - - 10 - - 11.4 1012.6 0.0
24/06:30pm SW 4 5 - - - - 10 - - 13.3 1012.3 0.0
24/06:00pm SW 4 6 - - - - 10 - - 15.3 1012.1 0.0
24/05:30pm WSW 8 13 - - - - 10 - - 16.4 1011.7 0.0
24/05:00pm WSW 9 15 - - - - 10 - - 17.3 1011.3 0.0
24/04:30pm WSW 8 11 - - - - 10 - - 18.4 1010.8 0.0
24/04:00pm WSW 9 14 - - - - 10 - - 19.0 1010.4 0.0
24/03:30pm W 9 13 - - - - 10 - - 19.4 1010.1 0.0
24/03:00pm WSW 8 15 - - - - 10 - - 19.5 1010.1 0.0
24/02:30pm W 10 15 - - - - 10 - - 19.4 1010.1 0.0
24/02:00pm WNW 7 13 - - - - 10 - - 18.9 1010.4 0.0
24/01:30pm WSW 10 16 - - - - 10 - - 18.7 1010.7 0.0
24/01:00pm WSW 9 14 - - - - 10 - - 18.1 1011.0 0.0
24/12:30pm W 10 15 - - - - 10 - - 17.6 1011.3 0.0
24/12:00pm WSW 11 15 - - - - 10 - - 17.3 1011.9 0.0
24/11:30am WSW 10 15 - - - - 10 - - 16.6 1012.2 0.0
24/11:00am W 7 13 - - - - 10 - - 15.9 1012.7 0.0
24/10:30am W 9 14 - - - - 10 - - 15.4 1013.2 0.0
24/10:00am WSW 9 14 - - - - 10 - - 14.5 1013.6 0.0
24/09:30am W 8 11 - - - - 10 - - 14.1 1013.7 0.0
24/09:00am WSW 8 12 - - - - 10 - - 13.1 1013.6 0.6
24/08:30am W 6 9 - - - - 10 - - 12.3 1013.6 0.6
24/08:00am W 6 9 - - - - 10 - - 11.1 1013.2 0.6
24/07:30am W 7 11 - - - - 10 - - 9.9 1012.9 0.6
24/07:00am W 5 6 - - - - 10 - - 7.5 1012.7 0.6
24/06:30am W 4 5 - - - - 10 - - 7.1 1012.3 0.6
24/06:00am W 6 7 - - - - 10 - - 7.7 1012.1 0.6
24/05:30am W 7 11 - - - - 10 - - 8.2 1011.8 0.6
24/05:00am W 7 9 - - - - 10 - - 8.1 1011.4 0.6
24/04:30am W 6 8 - - - - 10 - - 8.1 1011.3 0.6
24/04:00am WNW 6 7 - - - - 10 - - 8.3 1011.4 0.6
24/03:30am NW 5 6 - - - - 10 - - 8.7 1011.6 0.6
24/03:00am NW 5 8 - - - - 10 - - 9.7 1011.7 0.6
24/02:30am W 6 7 - - - - 10 - - 10.3 1011.9 0.6
24/02:00am W 7 8 - - - - 10 - - 10.7 1012.3 0.6
24/01:30am WNW 7 10 - - - - 10 - - 11.2 1012.7 0.6
24/01:00am WNW 5 8 - - - - 10 - - 11.3 1013.0 0.6
24/12:30am WNW 7 11 - - - - 10 - - 11.4 1012.6 0.6
24/12:00am WNW 8 11 - - - - 10 Partly cloudy - 11.4 1012.7 0.6
 
Date/Time
EST
Wind Sea
Height
m
Swell Vis
km
Cloud Weather Temp
°C
Press
hPa
Rain since
9am
mm
Dir  Spd
kts
Gust
kts
Height
m
Period
s
Dir
23/11:30pm W 7 9 - - - - 10 - - 10.8 1011.7 0.6
23/11:00pm WNW 6 8 - - - - 10 - - 11.4 1012.3 0.6
23/10:30pm WNW 7 10 - - - - 10 - - 11.9 1012.8 0.6
23/10:00pm WNW 7 10 - - - - 10 - - 12.2 1012.8 0.6
23/09:30pm WNW 8 11 - - - - 10 - - 12.2 1013.2 0.6
23/09:00pm NW 7 9 - - - - 10 Cloudy - 11.9 1012.6 0.6
23/08:30pm WNW 7 10 - - - - 10 - - 11.9 1013.5 0.6
23/08:00pm NW 6 9 - - - - 10 - - 11.8 1012.8 0.6
23/07:30pm WNW 7 10 - - - - 10 - - 11.6 1013.1 0.6
23/07:29pm WNW 6 10 - - - - 10 - - 11.6 1012.8 0.6
23/07:12pm NW 5 8 - - - - 10 - - 12.1 1010.6 0.6
23/07:00pm WNW 7 12 - - - - 10 - - 12.1 1012.7 0.6
23/06:30pm WNW 6 11 - - - - 10 - - 12.0 1012.4 0.6
23/06:00pm WNW 6 8 - - - - 10 Cloudy - 11.6 1012.1 0.6

Other formats

Comma delimited format used in spreadsheet applications
http://www.bom.gov.au/fwo/IDQ60701/IDQ60701.95565.axf

JavaScript Object Notation format (JSON) in row-major order
http://www.bom.gov.au/fwo/IDQ60701/IDQ60701.95565.json

Data quality

Most of these data are generated automatically and are frequently updated. Quality checks on data are not normally performed. It is possible for incorrect values to appear. Refer to information at About Latest Weather Observations and please check the disclaimer before using these data.